Terminal Aerodrome Forecast
Issued by NWS

Home | Current Version | Previous Version | Graphics & Text | Print | Product List | Glossary On
Versions: 1 2 3 4 5 6 7 8 9 10 11 12 13
000
FTUS43 KICT 200940 AAB
TAFHUT
TAF AMD
KHUT 200940Z 2010/2106 16014KT 4SM BR SCT002 OVC004
      TEMPO 2010/2013 2SM BR OVC002
     FM201300 19010KT P6SM SCT004 BKN100
     FM201500 21012G18KT P6SM BKN100
     FM202200 34010KT P6SM SKC=

USA.gov is the U.S. government's official web portal to all federal, state and local government web resources and services.